Time;durP1;ratioP1;P1;durP2;ratioP2;P2;SDS_P1;SDS_P2;PMS_P1;PMS_P2;Temp;Humidity;BMP_temperature;BMP_pressure;BME280_temperature;BME280_humidity;BME280_pressure;Samples;Min_cycle;Max_cycle;Signal;HPM_P1;HPM_P2
2022/05/30 00:00:55;;;;;;;;;;;;;;;;;;2105887;28;19927;-48
2022/05/30 00:01:56;;;;;;;;;;;;;;;;;;2106130;28;20429;-47
2022/05/30 00:02:57;;;;;;;;;;;;;;;;;;2106070;28;20026;-47
2022/05/30 00:03:57;;;;;;;;;;;;;;;;;;2106028;28;19928;-47
2022/05/30 00:04:58;;;;;;;;;;;;;;;;;;2106249;28;19951;-48
2022/05/30 00:05:59;;;;;;;;;;;;;;;;;;2105973;28;19927;-47
2022/05/30 00:07:00;;;;;;;;;;;;;;;;;;2106078;28;19939;-47
2022/05/30 00:08:01;;;;;;;;;;;;;;;;;;2106112;28;19927;-47
2022/05/30 00:09:02;;;;;;;;;;;;;;;;;;2105974;28;19920;-49
2022/05/30 00:10:03;;;;;;;;;;;;;;;;;;2106084;28;19928;-47
2022/05/30 00:11:04;;;;;;;;;;;;;;;;;;2105993;28;19927;-47
2022/05/30 00:12:05;;;;;;;;;;;;;;;;;;2106195;28;20061;-47
2022/05/30 00:13:06;;;;;;;;;;;;;;;;;;2106041;28;20376;-47
2022/05/30 00:14:07;;;;;;;;;;;;;;;;;;2106125;28;20007;-49
2022/05/30 00:15:08;;;;;;;;;;;;;;;;;;2105988;28;19964;-48
2022/05/30 00:16:08;;;;;;;;;;;;;;;;;;2106278;28;19920;-49
2022/05/30 00:17:09;;;;;;;;;;;;;;;;;;2106158;28;19920;-47
2022/05/30 00:18:12;;;;;;;;;;;;;;;;;;2106015;28;19919;-47
2022/05/30 00:19:13;;;;;;;;;;;;;;;;;;2098889;28;20015;-47
2022/05/30 00:20:14;;;;;;;;;;;;;;;;;;2097644;28;20278;-46
2022/05/30 00:21:14;;;;;;;;;;;;;;;;;;2097770;28;19921;-46
2022/05/30 00:22:15;;;;;;;;;;;;;;;;;;2097717;28;19920;-47
2022/05/30 00:23:16;;;;;;;;;;;;;;;;;;2097801;28;20430;-48
2022/05/30 00:24:17;;;;;;;;;;;;;;;;;;2097654;28;20320;-47
2022/05/30 00:25:18;;;;;;;;;;;;;;;;;;2097621;28;19927;-47
2022/05/30 00:26:19;;;;;;;;;;;;;;;;;;2097589;28;19920;-46
2022/05/30 00:27:21;;;;;;;;;;;;;;;;;;2097761;28;19921;-47
2022/05/30 00:28:22;;;;;;;;;;;;;;;;;;2097670;28;19920;-47
2022/05/30 00:29:22;;;;;;;;;;;;;;;;;;2097689;28;20011;-47
2022/05/30 00:30:23;;;;;;;;;;;;;;;;;;2097739;28;20397;-47
2022/05/30 00:31:24;;;;;;;;;;;;;;;;;;2097590;28;20335;-47
2022/05/30 00:32:25;;;;;;;;;;;;;;;;;;2097718;28;19920;-46
2022/05/30 00:33:26;;;;;;;;;;;;;;;;;;2097612;28;20015;-47
2022/05/30 00:34:27;;;;;;;;;;;;;;;;;;2097660;28;20427;-47
2022/05/30 00:35:28;;;;;;;;;;;;;;;;;;2101404;28;19928;-46
2022/05/30 00:36:29;;;;;;;;;;;;;;;;;;2106121;28;20289;-46
2022/05/30 00:37:30;;;;;;;;;;;;;;;;;;2106126;28;20033;-47
2022/05/30 00:38:31;;;;;;;;;;;;;;;;;;2105945;28;20262;-47
2022/05/30 00:39:32;;;;;;;;;;;;;;;;;;2105975;28;19920;-47
2022/05/30 00:40:33;;;;;;;;;;;;;;;;;;2105941;28;20301;-47
2022/05/30 00:41:33;;;;;;;;;;;;;;;;;;2105918;28;19931;-46
2022/05/30 00:42:34;;;;;;;;;;;;;;;;;;2105876;28;19920;-46
2022/05/30 00:43:35;;;;;;;;;;;;;;;;;;2106018;28;19920;-46
2022/05/30 00:44:36;;;;;;;;;;;;;;;;;;2105975;28;19927;-47
2022/05/30 00:45:37;;;;;;;;;;;;;;;;;;2105913;28;19920;-47
2022/05/30 00:46:38;;;;;;;;;;;;;;;;;;2105944;28;19924;-47
2022/05/30 00:47:39;;;;;;;;;;;;;;;;;;2105983;28;19920;-46
2022/05/30 00:48:40;;;;;;;;;;;;;;;;;;2105767;28;19924;-47
2022/05/30 00:49:41;;;;;;;;;;;;;;;;;;2106121;28;19920;-47
2022/05/30 00:50:41;;;;;;;;;;;;;;;;;;2105857;28;19924;-46
2022/05/30 00:51:42;;;;;;;;;;;;;;;;;;2105849;28;20004;-46
2022/05/30 00:52:43;;;;;;;;;;;;;;;;;;2106075;28;20401;-47
2022/05/30 00:53:44;;;;;;;;;;;;;;;;;;2105799;28;19923;-46
2022/05/30 00:54:45;;;;;;;;;;;;;;;;;;2105886;28;20384;-46
2022/05/30 00:55:46;;;;;;;;;;;;;;;;;;2105869;28;19974;-46
2022/05/30 00:56:47;;;;;;;;;;;;;;;;;;2101838;28;20286;-47
2022/05/30 00:57:47;;;;;;;;;;;;;;;;;;2097582;28;20007;-46
2022/05/30 00:58:48;;;;;;;;;;;;;;;;;;2097421;28;19957;-47
2022/05/30 00:59:49;;;;;;;;;;;;;;;;;;2097598;28;19920;-46
2022/05/30 01:00:50;;;;;;;;;;;;;;;;;;2097493;28;19951;-47
2022/05/30 01:01:51;;;;;;;;;;;;;;;;;;2097584;28;19927;-47
2022/05/30 01:06:30;;;;;;;;;;;;;;;;;;2097456;28;19974;-46
2022/05/30 01:06:51;;;;;;;;;;;;;;;;;;2097409;28;20391;-47
2022/05/30 01:07:52;;;;;;;;;;;;;;;;;;2097526;28;19942;-47
2022/05/30 01:08:53;;;;;;;;;;;;;;;;;;2097341;28;20278;-47
2022/05/30 01:09:54;;;;;;;;;;;;;;;;;;2095514;28;19963;-48
2022/05/30 01:10:55;;;;;;;;;;;;;;;;;;2097366;28;19928;-48
2022/05/30 01:11:56;;;;;;;;;;;;;;;;;;2097405;28;19943;-47
2022/05/30 01:12:57;;;;;;;;;;;;;;;;;;2097546;28;19920;-47
2022/05/30 01:13:58;;;;;;;;;;;;;;;;;;2097308;28;20379;-47
2022/05/30 01:14:58;;;;;;;;;;;;;;;;;;2097436;28;19920;-47
2022/05/30 01:15:59;;;;;;;;;;;;;;;;;;2097453;28;20018;-46
2022/05/30 01:17:02;;;;;;;;;;;;;;;;;;2097509;28;19920;-47
2022/05/30 01:18:03;;;;;;;;;;;;;;;;;;2097320;28;20222;-47
2022/05/30 01:19:04;;;;;;;;;;;;;;;;;;2102886;28;20010;-47
2022/05/30 01:20:05;;;;;;;;;;;;;;;;;;2105747;28;20165;-48
2022/05/30 01:21:06;;;;;;;;;;;;;;;;;;2106782;28;20023;-47
2022/05/30 01:22:07;;;;;;;;;;;;;;;;;;2107297;28;19920;-48
2022/05/30 01:23:08;;;;;;;;;;;;;;;;;;2107113;28;20007;-49
2022/05/30 01:24:14;;;;;;;;;;;;;;;;;;2107084;28;19920;-47
2022/05/30 01:25:15;;;;;;;;;;;;;;;;;;2107105;28;20322;-49
2022/05/30 01:26:16;;;;;;;;;;;;;;;;;;2107161;28;19920;-47
2022/05/30 01:27:17;;;;;;;;;;;;;;;;;;2107102;28;19945;-47
2022/05/30 01:28:18;;;;;;;;;;;;;;;;;;2107252;28;20300;-48
2022/05/30 01:29:18;;;;;;;;;;;;;;;;;;2107122;28;19924;-47
2022/05/30 01:30:19;;;;;;;;;;;;;;;;;;2107063;28;19927;-47
2022/05/30 01:31:20;;;;;;;;;;;;;;;;;;2107100;28;20383;-46
2022/05/30 01:32:21;;;;;;;;;;;;;;;;;;2107048;28;20003;-50
2022/05/30 01:33:22;;;;;;;;;;;;;;;;;;2107227;28;20006;-48
2022/05/30 01:34:23;;;;;;;;;;;;;;;;;;2107020;28;20431;-47
2022/05/30 01:35:24;;;;;;;;;;;;;;;;;;2107319;28;19931;-47
2022/05/30 01:36:25;;;;;;;;;;;;;;;;;;2106973;28;19985;-46
2022/05/30 01:37:26;;;;;;;;;;;;;;;;;;2107157;28;19920;-48
2022/05/30 01:38:28;;;;;;;;;;;;;;;;;;2107344;28;20007;-59
2022/05/30 01:39:28;;;;;;;;;;;;;;;;;;2107361;28;20007;-47
2022/05/30 01:40:29;;;;;;;;;;;;;;;;;;2107032;28;19985;-48
2022/05/30 01:41:30;;;;;;;;;;;;;;;;;;2107157;28;19928;-47
2022/05/30 01:42:31;;;;;;;;;;;;;;;;;;2107145;28;19942;-47
2022/05/30 01:43:32;;;;;;;;;;;;;;;;;;2107210;28;19951;-46
2022/05/30 01:44:33;;;;;;;;;;;;;;;;;;2106966;28;20335;-47
2022/05/30 01:45:52;;;;;;;;;;;;;;;;;;2107045;28;19920;-48
2022/05/30 01:46:53;;;;;;;;;;;;;;;;;;2107144;28;19920;-49
2022/05/30 01:47:54;;;;;;;;;;;;;;;;;;2106925;28;19924;-47
2022/05/30 01:48:55;;;;;;;;;;;;;;;;;;2106914;28;19920;-47
2022/05/30 01:49:55;;;;;;;;;;;;;;;;;;2106985;28;19924;-46
2022/05/30 01:50:57;;;;;;;;;;;;;;;;;;2106950;28;20377;-48
2022/05/30 01:51:58;;;;;;;;;;;;;;;;;;2107067;28;20014;-47
2022/05/30 01:52:59;;;;;;;;;;;;;;;;;;2106729;28;20373;-46
2022/05/30 01:54:00;;;;;;;;;;;;;;;;;;2100582;28;20311;-47
2022/05/30 01:55:01;;;;;;;;;;;;;;;;;;2098701;28;19921;-48
2022/05/30 01:56:02;;;;;;;;;;;;;;;;;;2098562;28;19927;-46
2022/05/30 01:57:03;;;;;;;;;;;;;;;;;;2098541;28;19991;-49
2022/05/30 01:58:03;;;;;;;;;;;;;;;;;;2098563;28;19924;-47
2022/05/30 01:59:04;;;;;;;;;;;;;;;;;;2098435;28;19920;-48
2022/05/30 02:00:05;;;;;;;;;;;;;;;;;;2098673;28;19966;-48
2022/05/30 02:01:06;;;;;;;;;;;;;;;;;;2098547;28;19954;-49
2022/05/30 02:02:07;;;;;;;;;;;;;;;;;;2098665;28;20289;-49
2022/05/30 02:03:08;;;;;;;;;;;;;;;;;;2098452;28;19932;-47
2022/05/30 02:04:09;;;;;;;;;;;;;;;;;;2098628;28;19943;-47
2022/05/30 02:05:10;;;;;;;;;;;;;;;;;;2098655;28;19920;-49
2022/05/30 02:06:10;;;;;;;;;;;;;;;;;;2098430;28;19942;-49
2022/05/30 02:07:12;;;;;;;;;;;;;;;;;;2098445;28;19921;-48
2022/05/30 02:08:18;;;;;;;;;;;;;;;;;;2098502;28;20023;-48
2022/05/30 02:09:19;;;;;;;;;;;;;;;;;;2098571;28;19926;-49
2022/05/30 02:10:20;;;;;;;;;;;;;;;;;;2098472;28;19928;-48
2022/05/30 02:11:21;;;;;;;;;;;;;;;;;;2098630;28;19921;-47
2022/05/30 02:12:22;;;;;;;;;;;;;;;;;;2098412;28;20301;-49
2022/05/30 02:13:23;;;;;;;;;;;;;;;;;;2098606;28;19962;-48
2022/05/30 02:14:23;;;;;;;;;;;;;;;;;;2098409;28;20019;-47
2022/05/30 02:15:24;;;;;;;;;;;;;;;;;;2098467;28;19943;-47
2022/05/30 02:17:54;;;;;;;;;;;;;;;;;;2072777;28;20542;-47
2022/05/30 02:18:55;;;;;;;;;;;;;;;;;;2089812;28;20014;-49
2022/05/30 02:19:56;;;;;;;;;;;;;;;;;;2098412;28;20363;-47
2022/05/30 02:20:59;;;;;;;;;;;;;;;;;;2099069;28;19921;-47
2022/05/30 02:22:00;;;;;;;;;;;;;;;;;;2106785;28;19920;-48
2022/05/30 02:23:01;;;;;;;;;;;;;;;;;;2106914;28;20411;-49
2022/05/30 02:24:02;;;;;;;;;;;;;;;;;;2106631;28;20439;-47
2022/05/30 02:25:03;;;;;;;;;;;;;;;;;;2106783;28;19920;-49
2022/05/30 02:26:04;;;;;;;;;;;;;;;;;;2106665;28;19924;-49
2022/05/30 02:27:05;;;;;;;;;;;;;;;;;;2106685;28;20315;-47
2022/05/30 02:28:05;;;;;;;;;;;;;;;;;;2106578;28;19920;-47
2022/05/30 02:29:06;;;;;;;;;;;;;;;;;;2106608;28;20428;-47
2022/05/30 02:30:07;;;;;;;;;;;;;;;;;;2106661;28;20361;-47
2022/05/30 02:31:08;;;;;;;;;;;;;;;;;;2106855;28;19920;-49
2022/05/30 02:32:09;;;;;;;;;;;;;;;;;;2106023;28;20403;-47
2022/05/30 02:37:08;;;;;;;;;;;;;;;;;;2106923;28;20034;-48
2022/05/30 02:38:09;;;;;;;;;;;;;;;;;;2106752;28;19920;-47
2022/05/30 02:39:10;;;;;;;;;;;;;;;;;;2106545;28;20364;-47
2022/05/30 02:40:10;;;;;;;;;;;;;;;;;;2106820;28;19920;-48
2022/05/30 02:41:11;;;;;;;;;;;;;;;;;;2106932;28;20112;-59
2022/05/30 02:42:13;;;;;;;;;;;;;;;;;;2106641;28;20129;-60
2022/05/30 02:43:14;;;;;;;;;;;;;;;;;;2106692;28;20022;-60
2022/05/30 02:44:18;;;;;;;;;;;;;;;;;;2106562;28;20403;-60
2022/05/30 02:45:19;;;;;;;;;;;;;;;;;;2106580;28;20019;-59
2022/05/30 02:46:19;;;;;;;;;;;;;;;;;;2106545;28;20023;-59
2022/05/30 02:47:21;;;;;;;;;;;;;;;;;;2106702;28;19920;-59
2022/05/30 02:48:22;;;;;;;;;;;;;;;;;;2106586;28;19974;-59
2022/05/30 02:49:23;;;;;;;;;;;;;;;;;;2106417;28;19967;-60
2022/05/30 02:50:24;;;;;;;;;;;;;;;;;;2106562;28;20411;-60
2022/05/30 02:51:25;;;;;;;;;;;;;;;;;;2106647;28;19927;-60
2022/05/30 02:52:26;;;;;;;;;;;;;;;;;;2106611;28;19970;-60
2022/05/30 02:53:27;;;;;;;;;;;;;;;;;;2106710;28;19920;-60
2022/05/30 02:54:28;;;;;;;;;;;;;;;;;;2106672;28;19927;-59
2022/05/30 02:55:29;;;;;;;;;;;;;;;;;;2106473;28;19963;-60
2022/05/30 02:56:29;;;;;;;;;;;;;;;;;;2106913;28;19924;-59
2022/05/30 02:57:30;;;;;;;;;;;;;;;;;;2106464;28;19996;-60
2022/05/30 02:58:31;;;;;;;;;;;;;;;;;;2106662;28;19946;-60
2022/05/30 02:59:32;;;;;;;;;;;;;;;;;;2106405;28;20007;-59
2022/05/30 03:00:33;;;;;;;;;;;;;;;;;;2106651;28;19947;-60
2022/05/30 03:01:34;;;;;;;;;;;;;;;;;;2106562;28;19943;-60
2022/05/30 03:02:35;;;;;;;;;;;;;;;;;;2106455;28;19947;-60
2022/05/30 03:03:36;;;;;;;;;;;;;;;;;;2106446;28;20373;-59
2022/05/30 03:04:37;;;;;;;;;;;;;;;;;;2106479;28;19948;-60
2022/05/30 03:05:37;;;;;;;;;;;;;;;;;;2106595;28;19942;-60
2022/05/30 03:06:38;;;;;;;;;;;;;;;;;;2106360;28;19924;-60
2022/05/30 03:07:39;;;;;;;;;;;;;;;;;;2106750;28;19977;-60
2022/05/30 03:08:40;;;;;;;;;;;;;;;;;;2106423;28;20405;-59
2022/05/30 03:09:41;;;;;;;;;;;;;;;;;;2106794;28;20025;-49
2022/05/30 03:10:42;;;;;;;;;;;;;;;;;;2106539;28;19956;-48
2022/05/30 03:11:43;;;;;;;;;;;;;;;;;;2106736;28;20372;-48
2022/05/30 03:12:43;;;;;;;;;;;;;;;;;;2106418;28;19924;-47
2022/05/30 03:13:44;;;;;;;;;;;;;;;;;;2106460;28;19927;-48
2022/05/30 03:14:45;;;;;;;;;;;;;;;;;;2106387;28;20018;-47
2022/05/30 03:15:46;;;;;;;;;;;;;;;;;;2106400;28;19927;-47
2022/05/30 03:16:47;;;;;;;;;;;;;;;;;;2106459;28;19931;-46
2022/05/30 03:17:51;;;;;;;;;;;;;;;;;;2106400;28;19924;-47
2022/05/30 03:18:52;;;;;;;;;;;;;;;;;;2102047;28;20007;-47
2022/05/30 03:19:52;;;;;;;;;;;;;;;;;;2098003;28;19920;-47
2022/05/30 03:20:53;;;;;;;;;;;;;;;;;;2098255;28;20308;-60
2022/05/30 03:21:54;;;;;;;;;;;;;;;;;;2097997;28;20266;-60
2022/05/30 03:22:56;;;;;;;;;;;;;;;;;;2098160;28;19963;-59
2022/05/30 03:23:56;;;;;;;;;;;;;;;;;;2099428;28;19924;-60
2022/05/30 03:24:57;;;;;;;;;;;;;;;;;;2106513;28;20368;-60
2022/05/30 03:25:58;;;;;;;;;;;;;;;;;;2106390;28;20269;-59
2022/05/30 03:26:59;;;;;;;;;;;;;;;;;;2106431;28;19990;-59
2022/05/30 03:28:00;;;;;;;;;;;;;;;;;;2106319;28;19927;-59
2022/05/30 03:29:01;;;;;;;;;;;;;;;;;;2106267;28;19955;-60
2022/05/30 03:30:01;;;;;;;;;;;;;;;;;;2106506;28;19981;-60
2022/05/30 03:31:02;;;;;;;;;;;;;;;;;;2106514;28;20440;-48
2022/05/30 03:32:03;;;;;;;;;;;;;;;;;;2106292;28;20127;-46
2022/05/30 03:33:04;;;;;;;;;;;;;;;;;;2106267;28;19931;-47
2022/05/30 03:34:05;;;;;;;;;;;;;;;;;;2106268;28;19927;-49
2022/05/30 03:35:06;;;;;;;;;;;;;;;;;;2106474;28;19927;-47
2022/05/30 03:36:07;;;;;;;;;;;;;;;;;;2106673;28;20387;-47
2022/05/30 03:37:08;;;;;;;;;;;;;;;;;;2106416;28;20019;-47
2022/05/30 03:38:09;;;;;;;;;;;;;;;;;;2106288;28;19989;-47
2022/05/30 03:39:10;;;;;;;;;;;;;;;;;;2106203;28;19946;-47
2022/05/30 03:40:11;;;;;;;;;;;;;;;;;;2106315;28;20010;-46
2022/05/30 03:41:12;;;;;;;;;;;;;;;;;;2106276;28;19920;-49
2022/05/30 03:42:14;;;;;;;;;;;;;;;;;;2106285;28;19927;-47
2022/05/30 03:43:15;;;;;;;;;;;;;;;;;;2106177;28;19924;-48
2022/05/30 03:44:16;;;;;;;;;;;;;;;;;;2106195;28;19930;-50
2022/05/30 03:45:17;;;;;;;;;;;;;;;;;;2106140;28;19959;-47
2022/05/30 03:46:18;;;;;;;;;;;;;;;;;;2106277;28;20006;-47
2022/05/30 03:47:19;;;;;;;;;;;;;;;;;;2106371;28;19970;-47
2022/05/30 03:48:21;;;;;;;;;;;;;;;;;;2106399;28;19920;-60
2022/05/30 03:49:21;;;;;;;;;;;;;;;;;;2106375;28;19959;-60
2022/05/30 03:50:24;;;;;;;;;;;;;;;;;;2106395;28;20014;-47
2022/05/30 03:51:29;;;;;;;;;;;;;;;;;;2106186;28;19986;-47
2022/05/30 03:52:30;;;;;;;;;;;;;;;;;;2106310;28;19941;-49
2022/05/30 03:53:31;;;;;;;;;;;;;;;;;;2106153;28;19963;-46
2022/05/30 03:54:32;;;;;;;;;;;;;;;;;;2106220;28;19959;-47
2022/05/30 03:55:34;;;;;;;;;;;;;;;;;;2106115;28;19924;-49
2022/05/30 03:56:35;;;;;;;;;;;;;;;;;;2106324;28;20045;-48
2022/05/30 03:57:36;;;;;;;;;;;;;;;;;;2106242;28;20004;-47
2022/05/30 03:58:37;;;;;;;;;;;;;;;;;;2106227;28;20486;-47
2022/05/30 03:59:37;;;;;;;;;;;;;;;;;;2106273;28;19928;-47
2022/05/30 04:00:38;;;;;;;;;;;;;;;;;;2106095;28;20364;-48
2022/05/30 04:01:39;;;;;;;;;;;;;;;;;;2106133;28;19931;-46
2022/05/30 04:02:40;;;;;;;;;;;;;;;;;;2106173;28;20003;-47
2022/05/30 04:03:41;;;;;;;;;;;;;;;;;;2106150;28;20065;-46
2022/05/30 04:04:42;;;;;;;;;;;;;;;;;;2106172;28;19981;-49
2022/05/30 04:05:43;;;;;;;;;;;;;;;;;;2097754;28;19921;-48
2022/05/30 04:06:43;;;;;;;;;;;;;;;;;;2097329;28;20397;-48
2022/05/30 04:07:44;;;;;;;;;;;;;;;;;;2105371;28;19920;-47
2022/05/30 04:08:46;;;;;;;;;;;;;;;;;;2105385;28;19973;-47
2022/05/30 04:09:47;;;;;;;;;;;;;;;;;;2105339;28;20136;-47
2022/05/30 04:10:48;;;;;;;;;;;;;;;;;;2106238;28;20322;-48
2022/05/30 04:11:48;;;;;;;;;;;;;;;;;;2106044;28;19924;-47
2022/05/30 04:12:49;;;;;;;;;;;;;;;;;;2106060;28;19928;-46
2022/05/30 04:13:50;;;;;;;;;;;;;;;;;;2106070;28;20143;-47
2022/05/30 04:14:51;;;;;;;;;;;;;;;;;;2106069;28;19967;-47
2022/05/30 04:15:52;;;;;;;;;;;;;;;;;;2106093;28;19966;-47
2022/05/30 04:16:53;;;;;;;;;;;;;;;;;;2106065;28;19963;-47
2022/05/30 04:17:54;;;;;;;;;;;;;;;;;;2106207;28;19927;-49
2022/05/30 04:18:55;;;;;;;;;;;;;;;;;;2105802;28;20286;-48
2022/05/30 04:19:55;;;;;;;;;;;;;;;;;;2105992;28;20387;-47
2022/05/30 04:20:56;;;;;;;;;;;;;;;;;;2106137;28;19920;-60
2022/05/30 04:21:57;;;;;;;;;;;;;;;;;;2105975;28;19920;-60
2022/05/30 04:22:59;;;;;;;;;;;;;;;;;;2105906;28;19920;-60
2022/05/30 04:23:59;;;;;;;;;;;;;;;;;;2106017;28;20037;-60
2022/05/30 04:25:00;;;;;;;;;;;;;;;;;;2106021;28;20011;-60
2022/05/30 04:26:01;;;;;;;;;;;;;;;;;;2106136;28;20363;-60
2022/05/30 04:27:02;;;;;;;;;;;;;;;;;;2105900;28;19963;-60
2022/05/30 04:28:03;;;;;;;;;;;;;;;;;;2105985;28;19920;-60
2022/05/30 04:29:04;;;;;;;;;;;;;;;;;;2105722;28;19919;-60
2022/05/30 04:30:05;;;;;;;;;;;;;;;;;;2105877;28;20424;-60
2022/05/30 04:31:06;;;;;;;;;;;;;;;;;;2105928;28;19920;-60
2022/05/30 04:32:07;;;;;;;;;;;;;;;;;;2105912;28;19919;-60
2022/05/30 04:33:08;;;;;;;;;;;;;;;;;;2105992;28;20292;-60
2022/05/30 04:34:09;;;;;;;;;;;;;;;;;;2105929;28;19927;-60
2022/05/30 04:35:10;;;;;;;;;;;;;;;;;;2106017;28;20589;-60
2022/05/30 04:36:11;;;;;;;;;;;;;;;;;;2106044;28;20053;-60
2022/05/30 04:37:12;;;;;;;;;;;;;;;;;;2106032;28;19951;-60
2022/05/30 04:38:13;;;;;;;;;;;;;;;;;;2106114;28;19999;-46
2022/05/30 04:39:14;;;;;;;;;;;;;;;;;;2105991;28;19949;-48
2022/05/30 04:40:17;;;;;;;;;;;;;;;;;;2106034;28;19927;-46
2022/05/30 04:41:18;;;;;;;;;;;;;;;;;;2105906;28;20007;-47
2022/05/30 04:42:19;;;;;;;;;;;;;;;;;;2105942;28;20241;-49
2022/05/30 04:43:20;;;;;;;;;;;;;;;;;;2105964;28;20167;-47
2022/05/30 04:44:21;;;;;;;;;;;;;;;;;;2105938;28;19923;-49
2022/05/30 04:45:22;;;;;;;;;;;;;;;;;;2105955;28;19920;-47
2022/05/30 04:46:23;;;;;;;;;;;;;;;;;;2105861;28;19920;-47
2022/05/30 04:47:24;;;;;;;;;;;;;;;;;;2106080;28;19931;-46
2022/05/30 04:48:25;;;;;;;;;;;;;;;;;;2105864;28;20027;-47
2022/05/30 04:49:26;;;;;;;;;;;;;;;;;;2105966;28;20375;-47
2022/05/30 04:50:27;;;;;;;;;;;;;;;;;;2106040;28;19973;-48
2022/05/30 04:51:28;;;;;;;;;;;;;;;;;;2105882;28;19955;-47
2022/05/30 04:52:29;;;;;;;;;;;;;;;;;;2106257;28;19963;-46
2022/05/30 04:53:30;;;;;;;;;;;;;;;;;;2105969;28;20013;-46
2022/05/30 04:54:31;;;;;;;;;;;;;;;;;;2105760;28;20064;-46
2022/05/30 04:55:35;;;;;;;;;;;;;;;;;;2106770;28;19920;-60
2022/05/30 04:56:36;;;;;;;;;;;;;;;;;;2107563;28;20007;-47
2022/05/30 04:57:37;;;;;;;;;;;;;;;;;;2107614;28;20292;-60
2022/05/30 04:58:38;;;;;;;;;;;;;;;;;;2107384;28;19920;-60
2022/05/30 04:59:39;;;;;;;;;;;;;;;;;;2107521;28;19924;-60
2022/05/30 05:00:40;;;;;;;;;;;;;;;;;;2107442;28;19942;-61
2022/05/30 05:01:40;;;;;;;;;;;;;;;;;;2107298;28;19931;-61
2022/05/30 05:02:41;;;;;;;;;;;;;;;;;;2107507;28;20015;-60
2022/05/30 05:03:43;;;;;;;;;;;;;;;;;;2107228;28;19920;-60
2022/05/30 05:04:44;;;;;;;;;;;;;;;;;;2107515;28;19962;-47
2022/05/30 05:05:44;;;;;;;;;;;;;;;;;;2107332;28;19931;-46
2022/05/30 05:06:45;;;;;;;;;;;;;;;;;;2107290;28;20017;-47
2022/05/30 05:07:46;;;;;;;;;;;;;;;;;;2107442;28;20364;-47
2022/05/30 05:08:47;;;;;;;;;;;;;;;;;;2107189;28;19927;-47
2022/05/30 05:09:48;;;;;;;;;;;;;;;;;;2107177;28;19931;-47
2022/05/30 05:10:49;;;;;;;;;;;;;;;;;;2107587;28;19920;-47
2022/05/30 05:11:50;;;;;;;;;;;;;;;;;;2107286;28;19989;-47
2022/05/30 05:12:51;;;;;;;;;;;;;;;;;;2107645;28;20382;-48
2022/05/30 05:13:52;;;;;;;;;;;;;;;;;;2107224;28;20387;-47
2022/05/30 05:14:53;;;;;;;;;;;;;;;;;;2107266;28;19927;-46
2022/05/30 05:15:54;;;;;;;;;;;;;;;;;;2107446;28;20001;-46
2022/05/30 05:16:55;;;;;;;;;;;;;;;;;;2107100;28;19954;-45
2022/05/30 05:17:56;;;;;;;;;;;;;;;;;;2107262;28;19952;-45
2022/05/30 05:18:57;;;;;;;;;;;;;;;;;;2102117;28;19932;-46
2022/05/30 05:19:57;;;;;;;;;;;;;;;;;;2099086;28;19920;-45
2022/05/30 05:20:58;;;;;;;;;;;;;;;;;;2098870;28;20372;-46
2022/05/30 05:21:59;;;;;;;;;;;;;;;;;;2096915;28;19935;-45
2022/05/30 05:23:00;;;;;;;;;;;;;;;;;;2098910;28;19946;-46
2022/05/30 05:24:01;;;;;;;;;;;;;;;;;;2098696;28;20323;-46
2022/05/30 05:25:02;;;;;;;;;;;;;;;;;;2099114;28;19960;-47
2022/05/30 05:26:02;;;;;;;;;;;;;;;;;;2098843;28;19936;-47
2022/05/30 05:27:03;;;;;;;;;;;;;;;;;;2098800;28;19963;-46
2022/05/30 05:28:04;;;;;;;;;;;;;;;;;;2098835;28;20362;-66
2022/05/30 05:29:05;;;;;;;;;;;;;;;;;;2098728;28;20084;-66
2022/05/30 05:30:07;;;;;;;;;;;;;;;;;;2098708;28;19921;-66
2022/05/30 05:31:08;;;;;;;;;;;;;;;;;;2098841;28;20062;-67
2022/05/30 05:32:08;;;;;;;;;;;;;;;;;;2098810;28;19927;-65
2022/05/30 05:33:09;;;;;;;;;;;;;;;;;;2098705;28;19951;-64
2022/05/30 05:34:10;;;;;;;;;;;;;;;;;;2098687;28;20440;-63
2022/05/30 05:35:11;;;;;;;;;;;;;;;;;;2098707;28;19921;-63
2022/05/30 05:36:12;;;;;;;;;;;;;;;;;;2098705;28;19927;-66
2022/05/30 05:37:13;;;;;;;;;;;;;;;;;;2098723;28;20017;-66
2022/05/30 05:38:13;;;;;;;;;;;;;;;;;;2103930;28;19920;-67
2022/05/30 05:39:18;;;;;;;;;;;;;;;;;;2106956;28;19927;-66
2022/05/30 05:40:18;;;;;;;;;;;;;;;;;;2107146;28;19920;-67
2022/05/30 05:41:21;;;;;;;;;;;;;;;;;;2106984;28;20132;-66
2022/05/30 05:42:22;;;;;;;;;;;;;;;;;;2107141;28;19945;-64
2022/05/30 05:43:23;;;;;;;;;;;;;;;;;;2107038;28;19923;-64
2022/05/30 05:44:24;;;;;;;;;;;;;;;;;;2106877;28;19920;-63
2022/05/30 05:45:25;;;;;;;;;;;;;;;;;;2107094;28;19947;-67
2022/05/30 05:46:26;;;;;;;;;;;;;;;;;;2106940;28;19966;-64
2022/05/30 05:47:27;;;;;;;;;;;;;;;;;;2107333;28;19920;-47
2022/05/30 05:48:31;;;;;;;;;;;;;;;;;;2107020;28;19920;-47
2022/05/30 05:49:32;;;;;;;;;;;;;;;;;;2107024;28;19942;-46
2022/05/30 05:50:33;;;;;;;;;;;;;;;;;;2106972;28;19919;-48
2022/05/30 05:51:34;;;;;;;;;;;;;;;;;;2107107;28;19920;-47
2022/05/30 05:52:35;;;;;;;;;;;;;;;;;;2106911;28;19924;-47
2022/05/30 05:53:35;;;;;;;;;;;;;;;;;;2107106;28;20369;-48
2022/05/30 05:54:36;;;;;;;;;;;;;;;;;;2107166;28;19927;-47
2022/05/30 05:55:37;;;;;;;;;;;;;;;;;;2106884;28;19927;-47
2022/05/30 05:56:38;;;;;;;;;;;;;;;;;;2107241;28;20327;-60
2022/05/30 05:57:39;;;;;;;;;;;;;;;;;;2107037;28;20166;-60
2022/05/30 05:58:40;;;;;;;;;;;;;;;;;;2106951;28;19947;-61
2022/05/30 05:59:47;;;;;;;;;;;;;;;;;;2106911;28;20364;-61
2022/05/30 06:00:48;;;;;;;;;;;;;;;;;;2107041;28;19920;-61
2022/05/30 06:01:49;;;;;;;;;;;;;;;;;;2106835;28;20297;-61
2022/05/30 06:02:49;;;;;;;;;;;;;;;;;;2107010;28;19920;-60
2022/05/30 06:03:51;;;;;;;;;;;;;;;;;;2106929;28;19920;-60
2022/05/30 06:04:52;;;;;;;;;;;;;;;;;;2106892;28;20481;-61
2022/05/30 06:05:53;;;;;;;;;;;;;;;;;;2107141;28;20022;-61
2022/05/30 06:06:54;;;;;;;;;;;;;;;;;;2106662;28;19920;-60
2022/05/30 06:07:59;;;;;;;;;;;;;;;;;;2106969;28;19955;-60
2022/05/30 06:09:01;;;;;;;;;;;;;;;;;;2106832;28;20424;-61
2022/05/30 06:10:02;;;;;;;;;;;;;;;;;;2107098;28;20251;-61
2022/05/30 06:11:08;;;;;;;;;;;;;;;;;;2106861;28;20054;-60
2022/05/30 06:12:09;;;;;;;;;;;;;;;;;;2106984;28;19920;-60
2022/05/30 06:13:09;;;;;;;;;;;;;;;;;;2106696;28;19970;-61
2022/05/30 06:14:10;;;;;;;;;;;;;;;;;;2106901;28;19920;-60
2022/05/30 06:15:11;;;;;;;;;;;;;;;;;;2106917;28;19920;-60
2022/05/30 06:16:12;;;;;;;;;;;;;;;;;;2107168;28;20376;-46
2022/05/30 06:17:13;;;;;;;;;;;;;;;;;;2106861;28;20304;-46
2022/05/30 06:18:14;;;;;;;;;;;;;;;;;;2106792;28;19926;-46
2022/05/30 06:19:15;;;;;;;;;;;;;;;;;;2099231;28;19994;-45
2022/05/30 06:20:16;;;;;;;;;;;;;;;;;;2098376;28;20003;-46
2022/05/30 06:21:17;;;;;;;;;;;;;;;;;;2098422;28;19924;-46
2022/05/30 06:22:18;;;;;;;;;;;;;;;;;;2098426;28;19920;-46
2022/05/30 06:23:18;;;;;;;;;;;;;;;;;;2098554;28;19921;-45
2022/05/30 06:24:19;;;;;;;;;;;;;;;;;;2098309;28;20305;-46
2022/05/30 06:25:20;;;;;;;;;;;;;;;;;;2098407;28;20449;-45
2022/05/30 06:26:21;;;;;;;;;;;;;;;;;;2098393;28;19952;-45
2022/05/30 06:27:22;;;;;;;;;;;;;;;;;;2098488;28;19927;-45
2022/05/30 06:28:23;;;;;;;;;;;;;;;;;;2098369;28;19943;-45
2022/05/30 06:29:24;;;;;;;;;;;;;;;;;;2098261;28;19920;-45
2022/05/30 06:30:25;;;;;;;;;;;;;;;;;;2098472;28;19960;-45
2022/05/30 06:31:26;;;;;;;;;;;;;;;;;;2098329;28;19959;-45
2022/05/30 06:32:27;;;;;;;;;;;;;;;;;;2098443;28;19927;-46
2022/05/30 06:33:28;;;;;;;;;;;;;;;;;;2098348;28;19924;-46
2022/05/30 06:34:29;;;;;;;;;;;;;;;;;;2098184;28;19921;-46
2022/05/30 06:35:30;;;;;;;;;;;;;;;;;;2098482;28;20399;-60
2022/05/30 06:36:31;;;;;;;;;;;;;;;;;;2098311;28;20007;-60
2022/05/30 06:37:32;;;;;;;;;;;;;;;;;;2098253;28;20472;-60
2022/05/30 06:38:33;;;;;;;;;;;;;;;;;;2098391;28;19927;-60
2022/05/30 06:39:33;;;;;;;;;;;;;;;;;;2098577;28;19920;-60
2022/05/30 06:40:34;;;;;;;;;;;;;;;;;;2098233;28;19946;-60
2022/05/30 06:41:36;;;;;;;;;;;;;;;;;;2098470;28;19920;-60
2022/05/30 06:42:38;;;;;;;;;;;;;;;;;;2098728;28;20022;-45
2022/05/30 06:43:39;;;;;;;;;;;;;;;;;;2098346;28;20388;-64
2022/05/30 06:44:40;;;;;;;;;;;;;;;;;;2098315;28;19925;-65
2022/05/30 06:45:41;;;;;;;;;;;;;;;;;;2098368;28;20003;-65
2022/05/30 06:46:42;;;;;;;;;;;;;;;;;;2098137;28;19924;-65
2022/05/30 06:47:44;;;;;;;;;;;;;;;;;;2098384;28;20361;-65
2022/05/30 06:48:45;;;;;;;;;;;;;;;;;;2098515;28;20269;-64
2022/05/30 06:49:46;;;;;;;;;;;;;;;;;;2098346;28;20365;-64
2022/05/30 06:50:47;;;;;;;;;;;;;;;;;;2098370;28;20005;-65
2022/05/30 06:51:48;;;;;;;;;;;;;;;;;;2098380;28;19926;-64
2022/05/30 06:52:49;;;;;;;;;;;;;;;;;;2098243;28;19935;-65
2022/05/30 06:53:50;;;;;;;;;;;;;;;;;;2098361;28;19921;-44
2022/05/30 06:54:51;;;;;;;;;;;;;;;;;;2098330;28;20338;-45
2022/05/30 06:55:52;;;;;;;;;;;;;;;;;;2098415;28;19927;-64
2022/05/30 06:58:24;;;;;;;;;;;;;;;;;;2072484;28;20012;-45
2022/05/30 06:59:25;;;;;;;;;;;;;;;;;;2072426;28;20398;-45
2022/05/30 07:00:26;;;;;;;;;;;;;;;;;;2072755;28;20011;-46
2022/05/30 07:01:27;;;;;;;;;;;;;;;;;;2098230;28;19967;-45
2022/05/30 07:02:28;;;;;;;;;;;;;;;;;;2098304;28;20370;-44
2022/05/30 07:03:29;;;;;;;;;;;;;;;;;;2098276;28;19927;-45
2022/05/30 07:04:30;;;;;;;;;;;;;;;;;;2098202;28;19920;-45
2022/05/30 07:05:30;;;;;;;;;;;;;;;;;;2098105;28;19924;-45
2022/05/30 07:06:31;;;;;;;;;;;;;;;;;;2098376;28;19973;-45
2022/05/30 07:07:32;;;;;;;;;;;;;;;;;;2098276;28;19921;-44